sensor_id;sensor_type;location;lat;lon;timestamp;pressure;altitude;pressure_sealevel;temperature;humidity
52469;BME280;38381;53.688;10.776;2022-12-11T00:03:06;100945.38;;;-3.35;83.63
52469;BME280;38381;53.688;10.776;2022-12-11T00:08:07;100947.53;;;-3.41;83.62
52469;BME280;38381;53.688;10.776;2022-12-11T00:13:07;100945.78;;;-3.42;83.41
52469;BME280;38381;53.688;10.776;2022-12-11T00:18:11;100945.69;;;-3.31;82.60
52469;BME280;38381;53.688;10.776;2022-12-11T00:23:12;100929.19;;;-3.37;82.94
52469;BME280;38381;53.688;10.776;2022-12-11T00:28:14;100929.78;;;-3.41;83.33
52469;BME280;38381;53.688;10.776;2022-12-11T00:33:16;100920.44;;;-3.29;84.07
52469;BME280;38381;53.688;10.776;2022-12-11T00:38:19;100918.41;;;-3.21;84.50
52469;BME280;38381;53.688;10.776;2022-12-11T00:43:20;100921.91;;;-3.19;83.36
52469;BME280;38381;53.688;10.776;2022-12-11T00:48:20;100920.34;;;-3.17;83.94
52469;BME280;38381;53.688;10.776;2022-12-11T00:53:20;100914.09;;;-3.36;83.55
52469;BME280;38381;53.688;10.776;2022-12-11T00:58:21;100915.94;;;-3.33;83.58
52469;BME280;38381;53.688;10.776;2022-12-11T01:03:22;100923.75;;;-3.30;83.63
52469;BME280;38381;53.688;10.776;2022-12-11T01:08:22;100924.03;;;-3.26;83.09
52469;BME280;38381;53.688;10.776;2022-12-11T01:13:22;100914.41;;;-3.18;83.07
52469;BME280;38381;53.688;10.776;2022-12-11T01:18:23;100917.50;;;-3.09;83.34
52469;BME280;38381;53.688;10.776;2022-12-11T01:23:23;100927.66;;;-3.22;82.42
52469;BME280;38381;53.688;10.776;2022-12-11T01:28:24;100925.22;;;-3.20;82.63
52469;BME280;38381;53.688;10.776;2022-12-11T01:33:24;100930.75;;;-3.39;83.01
52469;BME280;38381;53.688;10.776;2022-12-11T01:38:25;100929.13;;;-3.26;83.64
52469;BME280;38381;53.688;10.776;2022-12-11T01:43:25;100923.00;;;-3.16;83.90
52469;BME280;38381;53.688;10.776;2022-12-11T01:48:27;100927.84;;;-3.19;83.82
52469;BME280;38381;53.688;10.776;2022-12-11T01:53:32;100923.00;;;-3.16;84.41
52469;BME280;38381;53.688;10.776;2022-12-11T01:58:43;100918.47;;;-3.07;83.66
52469;BME280;38381;53.688;10.776;2022-12-11T02:03:45;100914.09;;;-3.09;83.49
52469;BME280;38381;53.688;10.776;2022-12-11T02:08:46;100903.25;;;-3.07;83.82
52469;BME280;38381;53.688;10.776;2022-12-11T02:13:57;100910.28;;;-3.03;83.32
52469;BME280;38381;53.688;10.776;2022-12-11T02:19:07;100917.50;;;-3.09;84.18
52469;BME280;38381;53.688;10.776;2022-12-11T02:24:46;100919.28;;;-3.08;83.92
52469;BME280;38381;53.688;10.776;2022-12-11T02:30:14;100920.66;;;-3.26;83.86
52469;BME280;38381;53.688;10.776;2022-12-11T02:35:25;100916.03;;;-3.32;83.36
52469;BME280;38381;53.688;10.776;2022-12-11T02:40:29;100922.78;;;-3.19;82.85
52469;BME280;38381;53.688;10.776;2022-12-11T02:45:32;100924.84;;;-3.13;82.67
52469;BME280;38381;53.688;10.776;2022-12-11T02:50:35;100927.25;;;-3.15;82.63
52469;BME280;38381;53.688;10.776;2022-12-11T02:55:39;100914.00;;;-3.24;82.84
52469;BME280;38381;53.688;10.776;2022-12-11T03:00:44;100908.72;;;-3.27;83.38
52469;BME280;38381;53.688;10.776;2022-12-11T03:05:44;100909.69;;;-3.25;82.80
52469;BME280;38381;53.688;10.776;2022-12-11T03:10:45;100906.38;;;-3.37;82.86
52469;BME280;38381;53.688;10.776;2022-12-11T03:21:07;100911.44;;;-3.51;82.36
52469;BME280;38381;53.688;10.776;2022-12-11T03:26:13;100914.34;;;-3.58;82.46
52469;BME280;38381;53.688;10.776;2022-12-11T03:31:34;100903.22;;;-3.60;81.80
52469;BME280;38381;53.688;10.776;2022-12-11T03:36:38;100903.41;;;-3.70;82.21
52469;BME280;38381;53.688;10.776;2022-12-11T03:41:39;100903.97;;;-3.74;82.78
52469;BME280;38381;53.688;10.776;2022-12-11T03:46:43;100898.22;;;-3.85;82.86
52469;BME280;38381;53.688;10.776;2022-12-11T03:51:47;100898.66;;;-4.04;83.73
52469;BME280;38381;53.688;10.776;2022-12-11T03:56:52;100894.91;;;-4.09;83.03
52469;BME280;38381;53.688;10.776;2022-12-11T04:01:54;100889.88;;;-4.21;82.68
52469;BME280;38381;53.688;10.776;2022-12-11T04:06:55;100890.16;;;-4.30;82.87
52469;BME280;38381;53.688;10.776;2022-12-11T04:11:55;100888.34;;;-4.44;82.54
52469;BME280;38381;53.688;10.776;2022-12-11T04:16:57;100886.25;;;-4.50;82.67
52469;BME280;38381;53.688;10.776;2022-12-11T04:21:58;100883.44;;;-4.66;82.58
52469;BME280;38381;53.688;10.776;2022-12-11T04:27:17;100883.94;;;-4.83;83.61
52469;BME280;38381;53.688;10.776;2022-12-11T04:32:38;100879.00;;;-4.94;83.37
52469;BME280;38381;53.688;10.776;2022-12-11T04:37:39;100872.31;;;-5.05;83.54
52469;BME280;38381;53.688;10.776;2022-12-11T04:42:40;100879.13;;;-5.16;83.00
52469;BME280;38381;53.688;10.776;2022-12-11T04:47:41;100880.03;;;-5.27;83.24
52469;BME280;38381;53.688;10.776;2022-12-11T04:52:42;100881.34;;;-5.32;82.71
52469;BME280;38381;53.688;10.776;2022-12-11T04:57:42;100883.53;;;-5.37;83.01
52469;BME280;38381;53.688;10.776;2022-12-11T05:02:43;100888.69;;;-5.47;82.95
52469;BME280;38381;53.688;10.776;2022-12-11T05:07:43;100879.56;;;-5.57;82.73
52469;BME280;38381;53.688;10.776;2022-12-11T05:12:43;100884.59;;;-5.69;83.18
52469;BME280;38381;53.688;10.776;2022-12-11T05:17:44;100883.53;;;-5.72;83.34
52469;BME280;38381;53.688;10.776;2022-12-11T05:22:44;100891.72;;;-5.75;83.04
52469;BME280;38381;53.688;10.776;2022-12-11T05:27:45;100904.09;;;-5.90;82.35
52469;BME280;38381;53.688;10.776;2022-12-11T05:32:45;100903.34;;;-6.00;82.24
52469;BME280;38381;53.688;10.776;2022-12-11T05:37:45;100902.09;;;-6.05;81.91
52469;BME280;38381;53.688;10.776;2022-12-11T05:42:46;100902.09;;;-6.05;82.04
52469;BME280;38381;53.688;10.776;2022-12-11T05:47:46;100901.56;;;-6.13;82.29
52469;BME280;38381;53.688;10.776;2022-12-11T05:52:46;100904.16;;;-6.23;82.60
52469;BME280;38381;53.688;10.776;2022-12-11T05:57:47;100908.75;;;-6.30;82.27
52469;BME280;38381;53.688;10.776;2022-12-11T06:02:47;100901.44;;;-6.37;82.34
52469;BME280;38381;53.688;10.776;2022-12-11T06:07:48;100909.66;;;-6.39;81.99
52469;BME280;38381;53.688;10.776;2022-12-11T06:12:48;100916.91;;;-6.44;82.29
52469;BME280;38381;53.688;10.776;2022-12-11T06:17:48;100915.97;;;-6.56;81.39
52469;BME280;38381;53.688;10.776;2022-12-11T06:22:49;100924.91;;;-6.60;82.61
52469;BME280;38381;53.688;10.776;2022-12-11T06:27:50;100932.88;;;-6.65;83.00
52469;BME280;38381;53.688;10.776;2022-12-11T06:32:51;100937.72;;;-6.69;82.81
52469;BME280;38381;53.688;10.776;2022-12-11T06:37:51;100938.84;;;-6.75;82.54
52469;BME280;38381;53.688;10.776;2022-12-11T06:42:53;100944.53;;;-6.78;82.34
52469;BME280;38381;53.688;10.776;2022-12-11T06:47:53;100937.84;;;-6.77;81.92
52469;BME280;38381;53.688;10.776;2022-12-11T06:52:56;100940.53;;;-6.86;81.94
52469;BME280;38381;53.688;10.776;2022-12-11T06:57:56;100941.19;;;-6.89;82.87
52469;BME280;38381;53.688;10.776;2022-12-11T07:02:57;100937.53;;;-6.92;81.98
52469;BME280;38381;53.688;10.776;2022-12-11T07:07:57;100923.69;;;-6.97;82.18
52469;BME280;38381;53.688;10.776;2022-12-11T07:13:00;100941.44;;;-6.96;83.02
52469;BME280;38381;53.688;10.776;2022-12-11T07:18:01;100931.78;;;-7.01;82.71
52469;BME280;38381;53.688;10.776;2022-12-11T07:23:01;100938.59;;;-7.11;82.35
52469;BME280;38381;53.688;10.776;2022-12-11T07:28:02;100938.47;;;-7.12;82.39
52469;BME280;38381;53.688;10.776;2022-12-11T07:33:02;100936.09;;;-7.21;82.31
52469;BME280;38381;53.688;10.776;2022-12-11T07:38:03;100935.97;;;-7.22;82.59
52469;BME280;38381;53.688;10.776;2022-12-11T07:43:03;100921.84;;;-7.20;82.17
52469;BME280;38381;53.688;10.776;2022-12-11T07:48:04;100916.09;;;-7.30;82.23
52469;BME280;38381;53.688;10.776;2022-12-11T07:53:05;100916.84;;;-7.31;82.76
52469;BME280;38381;53.688;10.776;2022-12-11T07:58:05;100904.38;;;-7.29;82.62
52469;BME280;38381;53.688;10.776;2022-12-11T08:03:06;100897.78;;;-7.17;83.63
52469;BME280;38381;53.688;10.776;2022-12-11T08:08:06;100892.28;;;-7.33;83.80
52469;BME280;38381;53.688;10.776;2022-12-11T08:13:07;100899.56;;;-7.16;83.46
52469;BME280;38381;53.688;10.776;2022-12-11T08:18:07;100887.78;;;-7.05;83.59
52469;BME280;38381;53.688;10.776;2022-12-11T08:23:08;100923.47;;;-7.11;83.87
52469;BME280;38381;53.688;10.776;2022-12-11T08:28:08;100930.50;;;-7.06;83.91
52469;BME280;38381;53.688;10.776;2022-12-11T08:33:09;100937.03;;;-6.98;83.65
52469;BME280;38381;53.688;10.776;2022-12-11T08:38:09;100931.50;;;-6.94;83.72
52469;BME280;38381;53.688;10.776;2022-12-11T08:43:09;100927.53;;;-6.80;83.48
52469;BME280;38381;53.688;10.776;2022-12-11T08:48:10;100929.22;;;-6.69;84.30
52469;BME280;38381;53.688;10.776;2022-12-11T08:53:10;100928.84;;;-6.63;84.23
52469;BME280;38381;53.688;10.776;2022-12-11T08:58:11;100924.09;;;-6.49;84.36
52469;BME280;38381;53.688;10.776;2022-12-11T09:03:11;100921.41;;;-6.40;84.81
52469;BME280;38381;53.688;10.776;2022-12-11T09:08:11;100930.38;;;-6.21;85.49
52469;BME280;38381;53.688;10.776;2022-12-11T09:13:12;100924.28;;;-6.13;85.35
52469;BME280;38381;53.688;10.776;2022-12-11T09:18:12;100923.44;;;-6.02;86.19
52469;BME280;38381;53.688;10.776;2022-12-11T09:23:13;100917.38;;;-6.04;86.60
52469;BME280;38381;53.688;10.776;2022-12-11T09:28:13;100913.09;;;-5.93;86.92
52469;BME280;38381;53.688;10.776;2022-12-11T09:33:13;100921.25;;;-5.86;87.21
52469;BME280;38381;53.688;10.776;2022-12-11T09:38:14;100921.38;;;-5.84;88.03
52469;BME280;38381;53.688;10.776;2022-12-11T09:43:41;100909.84;;;-5.69;88.05
52469;BME280;38381;53.688;10.776;2022-12-11T09:48:45;100901.56;;;-5.56;88.15
52469;BME280;38381;53.688;10.776;2022-12-11T09:53:47;100897.06;;;-5.36;88.04
52469;BME280;38381;53.688;10.776;2022-12-11T09:58:59;100892.88;;;-5.36;89.15
52469;BME280;38381;53.688;10.776;2022-12-11T10:09:16;100889.25;;;-5.16;89.69
52469;BME280;38381;53.688;10.776;2022-12-11T10:19:27;100874.06;;;-4.92;90.33
52469;BME280;38381;53.688;10.776;2022-12-11T10:24:44;100869.31;;;-4.76;90.54
52469;BME280;38381;53.688;10.776;2022-12-11T10:29:53;100874.22;;;-4.66;91.25
52469;BME280;38381;53.688;10.776;2022-12-11T10:35:01;100870.47;;;-4.59;91.43
52469;BME280;38381;53.688;10.776;2022-12-11T10:40:04;100853.69;;;-4.45;91.49
52469;BME280;38381;53.688;10.776;2022-12-11T10:45:06;100859.16;;;-4.39;90.99
52469;BME280;38381;53.688;10.776;2022-12-11T10:50:07;100852.19;;;-4.30;91.53
52469;BME280;38381;53.688;10.776;2022-12-11T10:55:20;100848.91;;;-4.15;91.08
52469;BME280;38381;53.688;10.776;2022-12-11T11:00:38;100848.84;;;-4.03;91.31
52469;BME280;38381;53.688;10.776;2022-12-11T11:05:39;100848.41;;;-3.85;91.00
52469;BME280;38381;53.688;10.776;2022-12-11T11:10:54;100837.81;;;-3.79;90.89
52469;BME280;38381;53.688;10.776;2022-12-11T11:16:00;100833.63;;;-3.65;91.75
52469;BME280;38381;53.688;10.776;2022-12-11T11:21:02;100828.75;;;-3.49;90.84
52469;BME280;38381;53.688;10.776;2022-12-11T11:26:06;100825.94;;;-3.40;90.59
52469;BME280;38381;53.688;10.776;2022-12-11T11:31:12;100808.63;;;-3.19;89.88
52469;BME280;38381;53.688;10.776;2022-12-11T11:36:20;100797.56;;;-2.93;88.95
52469;BME280;38381;53.688;10.776;2022-12-11T11:41:29;100804.16;;;-2.81;86.89
52469;BME280;38381;53.688;10.776;2022-12-11T11:46:59;100811.38;;;-2.74;85.90
52469;BME280;38381;53.688;10.776;2022-12-11T11:52:12;100797.94;;;-2.58;84.39
52469;BME280;38381;53.688;10.776;2022-12-11T11:57:20;100806.44;;;-2.58;82.90
52469;BME280;38381;53.688;10.776;2022-12-11T12:02:21;100795.34;;;-2.45;83.20
52469;BME280;38381;53.688;10.776;2022-12-11T12:12:33;100792.66;;;-2.33;83.03
52469;BME280;38381;53.688;10.776;2022-12-11T12:33:12;100784.31;;;-2.16;82.39
52469;BME280;38381;53.688;10.776;2022-12-11T12:38:22;100783.19;;;-2.06;81.67
52469;BME280;38381;53.688;10.776;2022-12-11T12:48:35;100776.38;;;-2.07;82.00
52469;BME280;38381;53.688;10.776;2022-12-11T12:53:36;100779.09;;;-2.04;82.11
52469;BME280;38381;53.688;10.776;2022-12-11T12:58:42;100783.47;;;-2.02;82.04
52469;BME280;38381;53.688;10.776;2022-12-11T13:03:57;100793.09;;;-1.96;81.72
52469;BME280;38381;53.688;10.776;2022-12-11T13:09:11;100793.28;;;-1.93;81.38
52469;BME280;38381;53.688;10.776;2022-12-11T13:29:47;100782.88;;;-1.83;79.95
52469;BME280;38381;53.688;10.776;2022-12-11T13:34:55;100774.34;;;-1.83;80.16
52469;BME280;38381;53.688;10.776;2022-12-11T13:39:56;100784.69;;;-1.80;80.38
52469;BME280;38381;53.688;10.776;2022-12-11T13:44:59;100782.25;;;-1.78;80.25
52469;BME280;38381;53.688;10.776;2022-12-11T13:50:13;100782.13;;;-1.65;79.62
52469;BME280;38381;53.688;10.776;2022-12-11T13:55:22;100784.94;;;-1.75;80.03
52469;BME280;38381;53.688;10.776;2022-12-11T14:00:26;100784.06;;;-1.76;78.27
52469;BME280;38381;53.688;10.776;2022-12-11T14:05:27;100780.66;;;-1.76;77.99
52469;BME280;38381;53.688;10.776;2022-12-11T14:10:31;100786.44;;;-1.79;77.73
52469;BME280;38381;53.688;10.776;2022-12-11T14:15:34;100787.16;;;-1.96;78.08
52469;BME280;38381;53.688;10.776;2022-12-11T14:20:35;100786.53;;;-1.92;77.89
52469;BME280;38381;53.688;10.776;2022-12-11T14:25:35;100790.13;;;-2.04;78.37
52469;BME280;38381;53.688;10.776;2022-12-11T14:30:43;100794.53;;;-2.01;79.14
52469;BME280;38381;53.688;10.776;2022-12-11T14:35:46;100797.06;;;-2.01;79.24
52469;BME280;38381;53.688;10.776;2022-12-11T14:40:50;100798.91;;;-1.98;79.67
52469;BME280;38381;53.688;10.776;2022-12-11T14:46:08;100795.28;;;-2.02;80.39
52469;BME280;38381;53.688;10.776;2022-12-11T14:51:13;100804.69;;;-2.01;80.56
52469;BME280;38381;53.688;10.776;2022-12-11T14:56:20;100804.50;;;-2.04;80.64
52469;BME280;38381;53.688;10.776;2022-12-11T15:01:26;100804.13;;;-2.10;80.77
52469;BME280;38381;53.688;10.776;2022-12-11T15:06:31;100808.34;;;-2.11;81.63
52469;BME280;38381;53.688;10.776;2022-12-11T15:11:32;100809.41;;;-2.07;81.38
52469;BME280;38381;53.688;10.776;2022-12-11T15:16:36;100814.66;;;-2.04;81.82
52469;BME280;38381;53.688;10.776;2022-12-11T15:21:37;100813.94;;;-2.02;81.30
52469;BME280;38381;53.688;10.776;2022-12-11T15:26:45;100820.53;;;-2.05;81.90
52469;BME280;38381;53.688;10.776;2022-12-11T15:31:46;100819.75;;;-2.04;82.01
52469;BME280;38381;53.688;10.776;2022-12-11T15:36:46;100816.78;;;-1.97;82.04
52469;BME280;38381;53.688;10.776;2022-12-11T15:41:47;100811.84;;;-1.94;82.43
52469;BME280;38381;53.688;10.776;2022-12-11T15:46:48;100817.56;;;-1.98;82.34
52469;BME280;38381;53.688;10.776;2022-12-11T15:51:48;100817.81;;;-2.08;82.62
52469;BME280;38381;53.688;10.776;2022-12-11T15:56:49;100820.66;;;-1.89;82.22
52469;BME280;38381;53.688;10.776;2022-12-11T16:01:49;100815.56;;;-1.89;82.29
52469;BME280;38381;53.688;10.776;2022-12-11T16:06:50;100816.25;;;-2.06;82.32
52469;BME280;38381;53.688;10.776;2022-12-11T16:11:50;100815.00;;;-1.98;82.51
52469;BME280;38381;53.688;10.776;2022-12-11T16:16:51;100815.22;;;-1.95;82.75
52469;BME280;38381;53.688;10.776;2022-12-11T16:21:51;100809.84;;;-1.99;83.25
52469;BME280;38381;53.688;10.776;2022-12-11T16:26:51;100816.31;;;-1.90;83.51
52469;BME280;38381;53.688;10.776;2022-12-11T16:31:52;100815.56;;;-1.89;83.43
52469;BME280;38381;53.688;10.776;2022-12-11T16:36:53;100813.00;;;-1.89;83.61
52469;BME280;38381;53.688;10.776;2022-12-11T16:41:56;100811.34;;;-1.88;83.23
52469;BME280;38381;53.688;10.776;2022-12-11T16:46:56;100810.38;;;-1.90;82.77
52469;BME280;38381;53.688;10.776;2022-12-11T16:51:57;100808.81;;;-1.88;83.12
52469;BME280;38381;53.688;10.776;2022-12-11T16:56:57;100804.44;;;-1.91;83.05
52469;BME280;38381;53.688;10.776;2022-12-11T17:01:58;100805.19;;;-1.92;83.10
52469;BME280;38381;53.688;10.776;2022-12-11T17:06:58;100797.66;;;-1.90;83.30
52469;BME280;38381;53.688;10.776;2022-12-11T17:11:59;100797.66;;;-1.90;83.68
52469;BME280;38381;53.688;10.776;2022-12-11T17:16:59;100798.53;;;-1.90;84.06
52469;BME280;38381;53.688;10.776;2022-12-11T17:21:59;100806.75;;;-1.79;84.09
52469;BME280;38381;53.688;10.776;2022-12-11T17:27:00;100807.66;;;-1.78;83.96
52469;BME280;38381;53.688;10.776;2022-12-11T17:32:00;100808.00;;;-1.72;84.47
52469;BME280;38381;53.688;10.776;2022-12-11T17:37:02;100804.50;;;-1.74;84.78
52469;BME280;38381;53.688;10.776;2022-12-11T17:42:02;100801.00;;;-1.76;84.62
52469;BME280;38381;53.688;10.776;2022-12-11T17:47:03;100792.66;;;-1.74;84.93
52469;BME280;38381;53.688;10.776;2022-12-11T17:52:04;100792.41;;;-1.78;85.35
52469;BME280;38381;53.688;10.776;2022-12-11T17:57:04;100794.41;;;-1.73;85.08
52469;BME280;38381;53.688;10.776;2022-12-11T18:02:05;100791.19;;;-1.70;84.81
52469;BME280;38381;53.688;10.776;2022-12-11T18:07:06;100797.13;;;-1.70;84.30
52469;BME280;38381;53.688;10.776;2022-12-11T18:12:07;100797.50;;;-1.78;84.41
52469;BME280;38381;53.688;10.776;2022-12-11T18:17:08;100799.44;;;-1.74;83.67
52469;BME280;38381;53.688;10.776;2022-12-11T18:22:08;100803.34;;;-1.79;84.31
52469;BME280;38381;53.688;10.776;2022-12-11T18:27:09;100804.56;;;-1.73;82.97
52469;BME280;38381;53.688;10.776;2022-12-11T18:32:11;100797.81;;;-1.87;83.90
52469;BME280;38381;53.688;10.776;2022-12-11T18:37:11;100803.09;;;-1.84;84.05
52469;BME280;38381;53.688;10.776;2022-12-11T18:42:12;100798.88;;;-1.84;83.76
52469;BME280;38381;53.688;10.776;2022-12-11T18:47:13;100795.81;;;-1.78;83.82
52469;BME280;38381;53.688;10.776;2022-12-11T18:52:13;100794.06;;;-1.79;83.77
52469;BME280;38381;53.688;10.776;2022-12-11T18:57:14;100795.03;;;-1.77;83.85
52469;BME280;38381;53.688;10.776;2022-12-11T19:02:14;100796.25;;;-1.85;83.92
52469;BME280;38381;53.688;10.776;2022-12-11T19:07:15;100792.13;;;-1.83;83.84
52469;BME280;38381;53.688;10.776;2022-12-11T19:12:15;100792.13;;;-1.83;83.93
52469;BME280;38381;53.688;10.776;2022-12-11T19:17:16;100790.03;;;-1.75;83.66
52469;BME280;38381;53.688;10.776;2022-12-11T19:22:16;100795.72;;;-1.79;84.06
52469;BME280;38381;53.688;10.776;2022-12-11T19:27:16;100805.91;;;-1.79;84.00
52469;BME280;38381;53.688;10.776;2022-12-11T19:32:17;100801.34;;;-1.85;83.83
52469;BME280;38381;53.688;10.776;2022-12-11T19:37:17;100804.59;;;-1.88;84.39
52469;BME280;38381;53.688;10.776;2022-12-11T19:42:18;100802.03;;;-1.88;84.28
52469;BME280;38381;53.688;10.776;2022-12-11T19:47:18;100800.66;;;-1.83;84.13
52469;BME280;38381;53.688;10.776;2022-12-11T19:52:19;100795.47;;;-1.84;84.37
52469;BME280;38381;53.688;10.776;2022-12-11T19:57:19;100797.66;;;-1.75;84.01
52469;BME280;38381;53.688;10.776;2022-12-11T20:02:20;100792.13;;;-1.83;83.75
52469;BME280;38381;53.688;10.776;2022-12-11T20:07:20;100795.63;;;-1.81;84.23
52469;BME280;38381;53.688;10.776;2022-12-11T20:12:21;100796.53;;;-1.80;84.53
52469;BME280;38381;53.688;10.776;2022-12-11T20:17:21;100801.97;;;-1.74;84.18
52469;BME280;38381;53.688;10.776;2022-12-11T20:22:22;100800.03;;;-1.78;84.01
52469;BME280;38381;53.688;10.776;2022-12-11T20:27:22;100795.38;;;-1.86;84.39
52469;BME280;38381;53.688;10.776;2022-12-11T20:32:22;100793.19;;;-1.79;84.42
52469;BME280;38381;53.688;10.776;2022-12-11T20:37:23;100792.22;;;-1.82;84.33
52469;BME280;38381;53.688;10.776;2022-12-11T20:42:25;100797.06;;;-1.86;84.88
52469;BME280;38381;53.688;10.776;2022-12-11T20:47:25;100799.75;;;-1.83;84.93
52469;BME280;38381;53.688;10.776;2022-12-11T20:52:26;100791.34;;;-1.82;85.24
52469;BME280;38381;53.688;10.776;2022-12-11T20:57:27;100794.97;;;-1.78;84.85
52469;BME280;38381;53.688;10.776;2022-12-11T21:02:27;100794.97;;;-1.78;84.87
52469;BME280;38381;53.688;10.776;2022-12-11T21:07:30;100790.47;;;-1.68;84.65
52469;BME280;38381;53.688;10.776;2022-12-11T21:12:30;100788.63;;;-1.70;84.91
52469;BME280;38381;53.688;10.776;2022-12-11T21:17:31;100790.91;;;-1.60;85.00
52469;BME280;38381;53.688;10.776;2022-12-11T21:22:31;100785.81;;;-1.60;84.79
52469;BME280;38381;53.688;10.776;2022-12-11T21:27:32;100790.28;;;-1.56;84.66
52469;BME280;38381;53.688;10.776;2022-12-11T21:32:32;100787.66;;;-1.57;84.97
52469;BME280;38381;53.688;10.776;2022-12-11T21:37:34;100786.44;;;-1.64;84.56
52469;BME280;38381;53.688;10.776;2022-12-11T21:42:34;100785.00;;;-1.59;84.94
52469;BME280;38381;53.688;10.776;2022-12-11T21:47:35;100783.63;;;-1.54;84.79
52469;BME280;38381;53.688;10.776;2022-12-11T21:52:37;100789.81;;;-1.49;84.71
52469;BME280;38381;53.688;10.776;2022-12-11T21:57:37;100787.78;;;-1.54;84.34
52469;BME280;38381;53.688;10.776;2022-12-11T22:02:38;100795.53;;;-1.53;84.78
52469;BME280;38381;53.688;10.776;2022-12-11T22:07:38;100791.25;;;-1.54;84.83
52469;BME280;38381;53.688;10.776;2022-12-11T22:12:39;100797.44;;;-1.49;84.65
52469;BME280;38381;53.688;10.776;2022-12-11T22:17:39;100796.66;;;-1.48;83.98
52469;BME280;38381;53.688;10.776;2022-12-11T22:22:40;100797.63;;;-1.46;84.24
52469;BME280;38381;53.688;10.776;2022-12-11T22:27:40;100798.78;;;-1.55;84.72
52469;BME280;38381;53.688;10.776;2022-12-11T22:32:40;100804.63;;;-1.56;84.62
52469;BME280;38381;53.688;10.776;2022-12-11T22:37:42;100803.78;;;-1.57;84.79
52469;BME280;38381;53.688;10.776;2022-12-11T22:42:42;100805.34;;;-1.59;85.04
52469;BME280;38381;53.688;10.776;2022-12-11T22:47:43;100805.19;;;-1.62;84.37
52469;BME280;38381;53.688;10.776;2022-12-11T22:52:43;100800.28;;;-1.74;84.70
52469;BME280;38381;53.688;10.776;2022-12-11T22:57:44;100804.66;;;-1.71;84.98
52469;BME280;38381;53.688;10.776;2022-12-11T23:02:45;100806.59;;;-1.67;85.36
52469;BME280;38381;53.688;10.776;2022-12-11T23:07:46;100810.72;;;-1.69;85.61
52469;BME280;38381;53.688;10.776;2022-12-11T23:12:46;100812.03;;;-1.76;85.69
52469;BME280;38381;53.688;10.776;2022-12-11T23:17:47;100806.09;;;-1.76;85.76
52469;BME280;38381;53.688;10.776;2022-12-11T23:22:47;100803.91;;;-1.70;85.87
52469;BME280;38381;53.688;10.776;2022-12-11T23:27:47;100806.16;;;-1.75;86.82
52469;BME280;38381;53.688;10.776;2022-12-11T23:32:48;100813.75;;;-1.45;86.64
52469;BME280;38381;53.688;10.776;2022-12-11T23:37:48;100801.75;;;-1.63;86.83
52469;BME280;38381;53.688;10.776;2022-12-11T23:42:48;100801.59;;;-1.66;87.42
52469;BME280;38381;53.688;10.776;2022-12-11T23:47:49;100811.88;;;-1.64;87.49
52469;BME280;38381;53.688;10.776;2022-12-11T23:52:49;100816.94;;;-1.64;88.03
52469;BME280;38381;53.688;10.776;2022-12-11T23:57:50;100819.91;;;-1.56;87.49
